sensor_id;sensor_type;location;lat;lon;timestamp;pressure;altitude;pressure_sealevel;temperature;humidity
70971;BME280;58632;51.718;19.446;2023-01-28T00:00:22;100233.80;;;0.40;100.00
70971;BME280;58632;51.718;19.446;2023-01-28T00:03:08;100228.98;;;0.42;100.00
70971;BME280;58632;51.718;19.446;2023-01-28T00:05:34;100226.88;;;0.46;100.00
70971;BME280;58632;51.718;19.446;2023-01-28T00:07:59;100227.71;;;0.47;100.00
70971;BME280;58632;51.718;19.446;2023-01-28T00:10:25;100225.65;;;0.47;100.00
70971;BME280;58632;51.718;19.446;2023-01-28T00:12:50;100227.45;;;0.45;100.00
70971;BME280;58632;51.718;19.446;2023-01-28T00:15:16;100229.20;;;0.46;100.00
70971;BME280;58632;51.718;19.446;2023-01-28T00:17:41;100229.85;;;0.46;100.00
70971;BME280;58632;51.718;19.446;2023-01-28T00:20:07;100224.77;;;0.44;100.00
70971;BME280;58632;51.718;19.446;2023-01-28T00:22:33;100228.84;;;0.44;100.00
70971;BME280;58632;51.718;19.446;2023-01-28T00:24:58;100233.58;;;0.43;100.00
70971;BME280;58632;51.718;19.446;2023-01-28T00:27:24;100233.34;;;0.39;100.00
70971;BME280;58632;51.718;19.446;2023-01-28T00:29:50;100235.54;;;0.35;100.00
70971;BME280;58632;51.718;19.446;2023-01-28T00:32:15;100232.70;;;0.33;100.00
70971;BME280;58632;51.718;19.446;2023-01-28T00:34:41;100233.96;;;0.34;100.00
70971;BME280;58632;51.718;19.446;2023-01-28T00:37:06;100232.86;;;0.33;100.00
70971;BME280;58632;51.718;19.446;2023-01-28T00:39:32;100235.43;;;0.31;100.00
70971;BME280;58632;51.718;19.446;2023-01-28T00:41:57;100237.52;;;0.31;100.00
70971;BME280;58632;51.718;19.446;2023-01-28T00:44:23;100236.64;;;0.30;100.00
70971;BME280;58632;51.718;19.446;2023-01-28T00:46:49;100234.34;;;0.28;100.00
70971;BME280;58632;51.718;19.446;2023-01-28T00:49:14;100234.65;;;0.27;100.00
70971;BME280;58632;51.718;19.446;2023-01-28T00:51:40;100232.02;;;0.25;100.00
70971;BME280;58632;51.718;19.446;2023-01-28T00:54:06;100238.98;;;0.25;100.00
70971;BME280;58632;51.718;19.446;2023-01-28T00:56:31;100239.45;;;0.25;100.00
70971;BME280;58632;51.718;19.446;2023-01-28T00:58:57;100241.41;;;0.25;100.00
70971;BME280;58632;51.718;19.446;2023-01-28T01:01:24;100240.87;;;0.25;100.00
70971;BME280;58632;51.718;19.446;2023-01-28T01:03:50;100238.28;;;0.22;100.00
70971;BME280;58632;51.718;19.446;2023-01-28T01:06:29;100239.20;;;0.19;100.00
70971;BME280;58632;51.718;19.446;2023-01-28T01:08:54;100243.52;;;0.16;100.00
70971;BME280;58632;51.718;19.446;2023-01-28T01:11:20;100246.16;;;0.17;100.00
70971;BME280;58632;51.718;19.446;2023-01-28T01:13:49;100248.02;;;0.18;100.00
70971;BME280;58632;51.718;19.446;2023-01-28T01:16:15;100248.05;;;0.19;100.00
70971;BME280;58632;51.718;19.446;2023-01-28T01:18:40;100241.17;;;0.18;100.00
70971;BME280;58632;51.718;19.446;2023-01-28T01:21:07;100240.02;;;0.17;100.00
70971;BME280;58632;51.718;19.446;2023-01-28T01:23:33;100238.87;;;0.16;100.00
70971;BME280;58632;51.718;19.446;2023-01-28T01:25:59;100242.20;;;0.16;100.00
70971;BME280;58632;51.718;19.446;2023-01-28T01:28:24;100243.33;;;0.15;100.00
70971;BME280;58632;51.718;19.446;2023-01-28T01:30:57;100237.66;;;0.15;100.00
70971;BME280;58632;51.718;19.446;2023-01-28T01:33:23;100243.82;;;0.18;100.00
70971;BME280;58632;51.718;19.446;2023-01-28T01:35:52;100253.95;;;0.19;100.00
70971;BME280;58632;51.718;19.446;2023-01-28T01:38:18;100252.44;;;0.18;100.00
70971;BME280;58632;51.718;19.446;2023-01-28T01:40:44;100251.94;;;0.14;100.00
70971;BME280;58632;51.718;19.446;2023-01-28T01:43:20;100249.41;;;0.12;100.00
70971;BME280;58632;51.718;19.446;2023-01-28T01:45:46;100248.30;;;0.10;100.00
70971;BME280;58632;51.718;19.446;2023-01-28T01:48:15;100249.84;;;0.08;100.00
70971;BME280;58632;51.718;19.446;2023-01-28T01:50:48;100253.30;;;0.07;100.00
70971;BME280;58632;51.718;19.446;2023-01-28T01:53:17;100252.19;;;0.07;100.00
70971;BME280;58632;51.718;19.446;2023-01-28T01:55:47;100248.71;;;0.09;100.00
70971;BME280;58632;51.718;19.446;2023-01-28T01:58:15;100247.50;;;0.10;100.00
70971;BME280;58632;51.718;19.446;2023-01-28T02:00:42;100253.58;;;0.13;100.00
70971;BME280;58632;51.718;19.446;2023-01-28T02:03:08;100251.83;;;0.15;100.00
70971;BME280;58632;51.718;19.446;2023-01-28T02:05:34;100255.15;;;0.17;100.00
70971;BME280;58632;51.718;19.446;2023-01-28T02:08:00;100255.58;;;0.16;100.00
70971;BME280;58632;51.718;19.446;2023-01-28T02:10:45;100252.52;;;0.14;100.00
70971;BME280;58632;51.718;19.446;2023-01-28T02:13:11;100251.72;;;0.14;100.00
70971;BME280;58632;51.718;19.446;2023-01-28T02:15:37;100254.96;;;0.15;100.00
70971;BME280;58632;51.718;19.446;2023-01-28T02:18:03;100257.02;;;0.15;100.00
70971;BME280;58632;51.718;19.446;2023-01-28T02:23:59;100250.55;;;0.09;100.00
70971;BME280;58632;51.718;19.446;2023-01-28T02:31:30;100252.59;;;0.06;100.00
70971;BME280;58632;51.718;19.446;2023-01-28T02:39:09;100243.32;;;0.09;100.00
70971;BME280;58632;51.718;19.446;2023-01-28T02:41:39;100248.77;;;0.10;100.00
70971;BME280;58632;51.718;19.446;2023-01-28T02:44:07;100249.21;;;0.10;100.00
70971;BME280;58632;51.718;19.446;2023-01-28T02:46:34;100249.34;;;0.12;100.00
70971;BME280;58632;51.718;19.446;2023-01-28T02:49:29;100250.06;;;0.13;100.00
70971;BME280;58632;51.718;19.446;2023-01-28T03:02:08;100257.45;;;0.07;100.00
70971;BME280;58632;51.718;19.446;2023-01-28T03:04:42;100259.66;;;0.03;100.00
70971;BME280;58632;51.718;19.446;2023-01-28T03:07:10;100252.33;;;0.04;100.00
70971;BME280;58632;51.718;19.446;2023-01-28T03:09:37;100255.79;;;0.05;100.00
70971;BME280;58632;51.718;19.446;2023-01-28T03:14:55;100258.30;;;0.03;100.00
70971;BME280;58632;51.718;19.446;2023-01-28T03:17:47;100259.12;;;0.01;100.00
70971;BME280;58632;51.718;19.446;2023-01-28T03:20:46;100262.04;;;0.01;100.00
70971;BME280;58632;51.718;19.446;2023-01-28T03:23:35;100265.96;;;0.05;100.00
70971;BME280;58632;51.718;19.446;2023-01-28T03:26:20;100262.33;;;0.08;100.00
70971;BME280;58632;51.718;19.446;2023-01-28T03:29:08;100266.92;;;0.09;100.00
70971;BME280;58632;51.718;19.446;2023-01-28T03:31:54;100266.21;;;0.09;100.00
70971;BME280;58632;51.718;19.446;2023-01-28T03:34:38;100262.00;;;0.08;100.00
70971;BME280;58632;51.718;19.446;2023-01-28T03:37:23;100261.48;;;0.06;100.00
70971;BME280;58632;51.718;19.446;2023-01-28T03:39:53;100261.55;;;0.05;100.00
70971;BME280;58632;51.718;19.446;2023-01-28T03:42:22;100261.86;;;0.04;100.00
70971;BME280;58632;51.718;19.446;2023-01-28T03:44:48;100256.73;;;0.06;100.00
70971;BME280;58632;51.718;19.446;2023-01-28T03:47:19;100255.04;;;0.07;100.00
70971;BME280;58632;51.718;19.446;2023-01-28T03:49:46;100255.80;;;0.08;100.00
70971;BME280;58632;51.718;19.446;2023-01-28T03:52:15;100256.89;;;0.09;100.00
70971;BME280;58632;51.718;19.446;2023-01-28T03:54:43;100255.25;;;0.10;100.00
70971;BME280;58632;51.718;19.446;2023-01-28T03:57:08;100254.85;;;0.09;100.00
70971;BME280;58632;51.718;19.446;2023-01-28T03:59:34;100253.24;;;0.09;100.00
70971;BME280;58632;51.718;19.446;2023-01-28T04:02:00;100258.02;;;0.12;100.00
70971;BME280;58632;51.718;19.446;2023-01-28T04:04:28;100258.20;;;0.12;100.00
70971;BME280;58632;51.718;19.446;2023-01-28T04:06:53;100257.73;;;0.12;100.00
70971;BME280;58632;51.718;19.446;2023-01-28T04:09:20;100258.23;;;0.12;100.00
70971;BME280;58632;51.718;19.446;2023-01-28T04:11:45;100255.71;;;0.12;100.00
70971;BME280;58632;51.718;19.446;2023-01-28T04:14:11;100258.69;;;0.13;100.00
70971;BME280;58632;51.718;19.446;2023-01-28T04:16:37;100260.34;;;0.15;100.00
70971;BME280;58632;51.718;19.446;2023-01-28T04:19:03;100262.09;;;0.16;100.00
70971;BME280;58632;51.718;19.446;2023-01-28T04:21:29;100261.17;;;0.19;100.00
70971;BME280;58632;51.718;19.446;2023-01-28T04:23:54;100261.45;;;0.23;100.00
70971;BME280;58632;51.718;19.446;2023-01-28T04:26:20;100260.68;;;0.21;100.00
70971;BME280;58632;51.718;19.446;2023-01-28T04:28:46;100261.09;;;0.14;100.00
70971;BME280;58632;51.718;19.446;2023-01-28T04:31:11;100262.34;;;0.09;100.00
70971;BME280;58632;51.718;19.446;2023-01-28T04:33:37;100263.52;;;0.08;100.00
70971;BME280;58632;51.718;19.446;2023-01-28T04:36:02;100259.36;;;0.08;100.00
70971;BME280;58632;51.718;19.446;2023-01-28T04:38:28;100266.25;;;0.11;100.00
70971;BME280;58632;51.718;19.446;2023-01-28T04:40:54;100268.66;;;0.13;100.00
70971;BME280;58632;51.718;19.446;2023-01-28T04:43:19;100265.48;;;0.16;100.00
70971;BME280;58632;51.718;19.446;2023-01-28T04:45:46;100266.34;;;0.18;100.00
70971;BME280;58632;51.718;19.446;2023-01-28T04:48:12;100272.34;;;0.19;100.00
70971;BME280;58632;51.718;19.446;2023-01-28T04:50:37;100274.39;;;0.16;100.00
70971;BME280;58632;51.718;19.446;2023-01-28T04:53:03;100274.75;;;0.13;100.00
70971;BME280;58632;51.718;19.446;2023-01-28T04:55:29;100279.45;;;0.12;100.00
70971;BME280;58632;51.718;19.446;2023-01-28T04:57:54;100272.25;;;0.12;100.00
70971;BME280;58632;51.718;19.446;2023-01-28T05:00:20;100269.77;;;0.14;100.00
70971;BME280;58632;51.718;19.446;2023-01-28T05:02:46;100273.45;;;0.16;100.00
70971;BME280;58632;51.718;19.446;2023-01-28T05:05:11;100274.30;;;0.15;100.00
70971;BME280;58632;51.718;19.446;2023-01-28T05:07:37;100275.31;;;0.14;100.00
70971;BME280;58632;51.718;19.446;2023-01-28T05:10:03;100280.36;;;0.14;100.00
70971;BME280;58632;51.718;19.446;2023-01-28T05:12:29;100280.98;;;0.12;100.00
70971;BME280;58632;51.718;19.446;2023-01-28T05:14:57;100282.06;;;0.10;100.00
70971;BME280;58632;51.718;19.446;2023-01-28T05:17:25;100282.30;;;0.11;100.00
70971;BME280;58632;51.718;19.446;2023-01-28T05:19:50;100284.31;;;0.12;100.00
70971;BME280;58632;51.718;19.446;2023-01-28T05:22:16;100288.42;;;0.11;100.00
70971;BME280;58632;51.718;19.446;2023-01-28T05:24:42;100291.59;;;0.07;100.00
70971;BME280;58632;51.718;19.446;2023-01-28T05:27:07;100294.77;;;0.01;100.00
70971;BME280;58632;51.718;19.446;2023-01-28T05:29:33;100291.52;;;-0.04;100.00
70971;BME280;58632;51.718;19.446;2023-01-28T05:31:58;100293.14;;;-0.06;100.00
70971;BME280;58632;51.718;19.446;2023-01-28T05:34:24;100292.11;;;-0.06;100.00
70971;BME280;58632;51.718;19.446;2023-01-28T05:36:50;100295.55;;;-0.03;100.00
70971;BME280;58632;51.718;19.446;2023-01-28T05:39:15;100296.13;;;-0.04;100.00
70971;BME280;58632;51.718;19.446;2023-01-28T05:41:41;100296.89;;;-0.09;100.00
70971;BME280;58632;51.718;19.446;2023-01-28T05:44:07;100295.52;;;-0.13;100.00
70971;BME280;58632;51.718;19.446;2023-01-28T05:46:32;100294.64;;;-0.17;100.00
70971;BME280;58632;51.718;19.446;2023-01-28T05:48:57;100293.41;;;-0.16;100.00
70971;BME280;58632;51.718;19.446;2023-01-28T05:51:23;100296.40;;;-0.12;100.00
70971;BME280;58632;51.718;19.446;2023-01-28T05:53:49;100301.26;;;-0.09;100.00
70971;BME280;58632;51.718;19.446;2023-01-28T05:56:14;100298.52;;;-0.08;100.00
70971;BME280;58632;51.718;19.446;2023-01-28T05:58:40;100304.80;;;-0.09;100.00
70971;BME280;58632;51.718;19.446;2023-01-28T06:01:06;100304.90;;;-0.12;100.00
70971;BME280;58632;51.718;19.446;2023-01-28T06:03:31;100304.39;;;-0.16;100.00
70971;BME280;58632;51.718;19.446;2023-01-28T06:05:57;100304.96;;;-0.17;100.00
70971;BME280;58632;51.718;19.446;2023-01-28T06:08:23;100311.06;;;-0.14;100.00
70971;BME280;58632;51.718;19.446;2023-01-28T06:10:48;100309.43;;;-0.09;100.00
70971;BME280;58632;51.718;19.446;2023-01-28T06:13:14;100313.31;;;-0.06;100.00
70971;BME280;58632;51.718;19.446;2023-01-28T06:15:40;100317.02;;;-0.05;100.00
70971;BME280;58632;51.718;19.446;2023-01-28T06:18:05;100320.82;;;-0.07;100.00
70971;BME280;58632;51.718;19.446;2023-01-28T06:20:31;100320.48;;;-0.08;100.00
70971;BME280;58632;51.718;19.446;2023-01-28T06:22:57;100322.41;;;-0.06;100.00
70971;BME280;58632;51.718;19.446;2023-01-28T06:25:22;100321.59;;;-0.02;100.00
70971;BME280;58632;51.718;19.446;2023-01-28T06:27:48;100317.20;;;0.00;100.00
70971;BME280;58632;51.718;19.446;2023-01-28T06:30:13;100320.90;;;-0.01;100.00
70971;BME280;58632;51.718;19.446;2023-01-28T06:32:39;100321.04;;;-0.03;100.00
70971;BME280;58632;51.718;19.446;2023-01-28T06:35:05;100323.91;;;-0.04;100.00
70971;BME280;58632;51.718;19.446;2023-01-28T06:37:30;100328.65;;;-0.07;100.00
70971;BME280;58632;51.718;19.446;2023-01-28T06:39:56;100329.33;;;-0.08;100.00
70971;BME280;58632;51.718;19.446;2023-01-28T06:42:22;100335.56;;;-0.06;100.00
70971;BME280;58632;51.718;19.446;2023-01-28T06:44:47;100338.00;;;-0.05;100.00
70971;BME280;58632;51.718;19.446;2023-01-28T06:47:13;100339.41;;;-0.02;100.00
70971;BME280;58632;51.718;19.446;2023-01-28T06:49:39;100343.84;;;-0.04;100.00
70971;BME280;58632;51.718;19.446;2023-01-28T06:52:05;100341.79;;;-0.05;100.00
70971;BME280;58632;51.718;19.446;2023-01-28T06:54:30;100344.48;;;-0.05;100.00
70971;BME280;58632;51.718;19.446;2023-01-28T06:56:56;100348.14;;;-0.02;100.00
70971;BME280;58632;51.718;19.446;2023-01-28T06:59:22;100346.20;;;-0.02;100.00
70971;BME280;58632;51.718;19.446;2023-01-28T07:01:47;100349.67;;;-0.03;100.00
70971;BME280;58632;51.718;19.446;2023-01-28T07:04:13;100355.27;;;-0.03;100.00
70971;BME280;58632;51.718;19.446;2023-01-28T07:06:39;100358.38;;;-0.04;100.00
70971;BME280;58632;51.718;19.446;2023-01-28T07:09:04;100360.73;;;-0.06;100.00
70971;BME280;58632;51.718;19.446;2023-01-28T07:11:30;100363.02;;;-0.06;100.00
70971;BME280;58632;51.718;19.446;2023-01-28T07:13:56;100363.09;;;-0.06;100.00
70971;BME280;58632;51.718;19.446;2023-01-28T07:16:22;100364.32;;;-0.05;100.00
70971;BME280;58632;51.718;19.446;2023-01-28T07:18:47;100365.50;;;-0.06;100.00
70971;BME280;58632;51.718;19.446;2023-01-28T07:21:13;100366.17;;;-0.05;100.00
70971;BME280;58632;51.718;19.446;2023-01-28T07:23:38;100373.16;;;-0.03;100.00
70971;BME280;58632;51.718;19.446;2023-01-28T07:26:04;100376.14;;;-0.02;100.00
70971;BME280;58632;51.718;19.446;2023-01-28T07:28:29;100377.52;;;0.00;100.00
70971;BME280;58632;51.718;19.446;2023-01-28T07:30:55;100377.19;;;-0.00;100.00
70971;BME280;58632;51.718;19.446;2023-01-28T07:33:21;100380.36;;;0.03;100.00
70971;BME280;58632;51.718;19.446;2023-01-28T07:35:46;100378.61;;;0.06;100.00
70971;BME280;58632;51.718;19.446;2023-01-28T07:38:12;100380.34;;;0.09;100.00
70971;BME280;58632;51.718;19.446;2023-01-28T07:40:38;100382.80;;;0.10;100.00
70971;BME280;58632;51.718;19.446;2023-01-28T07:43:04;100387.81;;;0.11;100.00
70971;BME280;58632;51.718;19.446;2023-01-28T07:45:31;100388.07;;;0.11;100.00
70971;BME280;58632;51.718;19.446;2023-01-28T07:47:57;100387.54;;;0.11;100.00
70971;BME280;58632;51.718;19.446;2023-01-28T07:50:23;100386.79;;;0.13;100.00
70971;BME280;58632;51.718;19.446;2023-01-28T07:52:49;100381.98;;;0.15;100.00
70971;BME280;58632;51.718;19.446;2023-01-28T07:55:15;100385.35;;;0.19;100.00
70971;BME280;58632;51.718;19.446;2023-01-28T07:57:56;100381.84;;;0.22;100.00
70971;BME280;58632;51.718;19.446;2023-01-28T08:00:22;100379.76;;;0.25;100.00
70971;BME280;58632;51.718;19.446;2023-01-28T08:02:48;100382.23;;;0.28;100.00
70971;BME280;58632;51.718;19.446;2023-01-28T08:05:18;100382.43;;;0.30;100.00
70971;BME280;58632;51.718;19.446;2023-01-28T08:07:44;100383.48;;;0.31;100.00
70971;BME280;58632;51.718;19.446;2023-01-28T08:10:13;100382.86;;;0.32;100.00
70971;BME280;58632;51.718;19.446;2023-01-28T08:12:39;100383.90;;;0.36;100.00
70971;BME280;58632;51.718;19.446;2023-01-28T08:15:05;100380.23;;;0.41;100.00
70971;BME280;58632;51.718;19.446;2023-01-28T08:17:31;100386.98;;;0.45;100.00
70971;BME280;58632;51.718;19.446;2023-01-28T08:19:56;100390.05;;;0.46;100.00
70971;BME280;58632;51.718;19.446;2023-01-28T08:22:25;100395.71;;;0.42;100.00
70971;BME280;58632;51.718;19.446;2023-01-28T08:24:51;100391.52;;;0.39;100.00
70971;BME280;58632;51.718;19.446;2023-01-28T08:27:17;100395.15;;;0.38;100.00
70971;BME280;58632;51.718;19.446;2023-01-28T08:29:42;100393.70;;;0.38;100.00
70971;BME280;58632;51.718;19.446;2023-01-28T08:32:08;100393.70;;;0.36;100.00
70971;BME280;58632;51.718;19.446;2023-01-28T08:34:34;100393.41;;;0.32;100.00
70971;BME280;58632;51.718;19.446;2023-01-28T08:36:59;100392.61;;;0.30;100.00
70971;BME280;58632;51.718;19.446;2023-01-28T08:39:25;100391.45;;;0.31;100.00
70971;BME280;58632;51.718;19.446;2023-01-28T08:41:51;100388.34;;;0.34;100.00
70971;BME280;58632;51.718;19.446;2023-01-28T08:44:16;100391.63;;;0.39;100.00
70971;BME280;58632;51.718;19.446;2023-01-28T08:46:42;100390.81;;;0.42;100.00
70971;BME280;58632;51.718;19.446;2023-01-28T08:49:08;100391.20;;;0.46;100.00
70971;BME280;58632;51.718;19.446;2023-01-28T08:51:33;100393.46;;;0.45;100.00
70971;BME280;58632;51.718;19.446;2023-01-28T08:53:59;100389.30;;;0.43;100.00
70971;BME280;58632;51.718;19.446;2023-01-28T08:56:26;100389.10;;;0.43;100.00
70971;BME280;58632;51.718;19.446;2023-01-28T08:58:51;100393.83;;;0.45;100.00
70971;BME280;58632;51.718;19.446;2023-01-28T09:01:17;100397.05;;;0.50;100.00
70971;BME280;58632;51.718;19.446;2023-01-28T09:03:43;100397.43;;;0.53;100.00
70971;BME280;58632;51.718;19.446;2023-01-28T09:06:08;100402.66;;;0.53;100.00
70971;BME280;58632;51.718;19.446;2023-01-28T09:08:34;100402.27;;;0.52;100.00
70971;BME280;58632;51.718;19.446;2023-01-28T09:10:59;100407.20;;;0.52;100.00
70971;BME280;58632;51.718;19.446;2023-01-28T09:13:25;100412.05;;;0.52;100.00
70971;BME280;58632;51.718;19.446;2023-01-28T09:15:51;100416.75;;;0.52;100.00
70971;BME280;58632;51.718;19.446;2023-01-28T09:18:16;100418.83;;;0.47;100.00
70971;BME280;58632;51.718;19.446;2023-01-28T09:20:42;100418.66;;;0.47;100.00
70971;BME280;58632;51.718;19.446;2023-01-28T09:23:08;100419.10;;;0.48;100.00
70971;BME280;58632;51.718;19.446;2023-01-28T09:25:33;100421.46;;;0.44;100.00
70971;BME280;58632;51.718;19.446;2023-01-28T09:28:00;100421.39;;;0.44;100.00
70971;BME280;58632;51.718;19.446;2023-01-28T09:30:26;100414.23;;;0.44;100.00
70971;BME280;58632;51.718;19.446;2023-01-28T09:32:52;100416.20;;;0.46;100.00
70971;BME280;58632;51.718;19.446;2023-01-28T09:35:21;100416.67;;;0.51;100.00
70971;BME280;58632;51.718;19.446;2023-01-28T09:37:47;100415.71;;;0.53;100.00
70971;BME280;58632;51.718;19.446;2023-01-28T09:40:16;100415.89;;;0.58;100.00
70971;BME280;58632;51.718;19.446;2023-01-28T09:45:41;100414.83;;;0.64;100.00
70971;BME280;58632;51.718;19.446;2023-01-28T09:48:13;100421.70;;;0.68;100.00
70971;BME280;58632;51.718;19.446;2023-01-28T09:50:40;100418.80;;;0.72;100.00
70971;BME280;58632;51.718;19.446;2023-01-28T09:55:33;100420.39;;;0.75;100.00
70971;BME280;58632;51.718;19.446;2023-01-28T09:58:00;100419.83;;;0.77;100.00
70971;BME280;58632;51.718;19.446;2023-01-28T10:00:44;100421.20;;;0.76;100.00
70971;BME280;58632;51.718;19.446;2023-01-28T10:03:16;100418.69;;;0.75;100.00
70971;BME280;58632;51.718;19.446;2023-01-28T10:08:54;100415.04;;;0.75;100.00
70971;BME280;58632;51.718;19.446;2023-01-28T10:11:37;100416.41;;;0.71;100.00
70971;BME280;58632;51.718;19.446;2023-01-28T10:14:27;100410.61;;;0.69;100.00
70971;BME280;58632;51.718;19.446;2023-01-28T10:19:34;100408.40;;;0.75;100.00
70971;BME280;58632;51.718;19.446;2023-01-28T10:22:04;100402.30;;;0.75;100.00
70971;BME280;58632;51.718;19.446;2023-01-28T10:24:35;100401.73;;;0.73;100.00
70971;BME280;58632;51.718;19.446;2023-01-28T10:27:02;100397.79;;;0.75;100.00
70971;BME280;58632;51.718;19.446;2023-01-28T10:29:28;100401.65;;;0.78;100.00
70971;BME280;58632;51.718;19.446;2023-01-28T10:32:14;100402.59;;;0.79;100.00
70971;BME280;58632;51.718;19.446;2023-01-28T10:34:40;100404.89;;;0.78;100.00
70971;BME280;58632;51.718;19.446;2023-01-28T10:37:07;100401.30;;;0.79;100.00
70971;BME280;58632;51.718;19.446;2023-01-28T10:39:33;100396.15;;;0.83;100.00
70971;BME280;58632;51.718;19.446;2023-01-28T10:41:59;100392.07;;;0.81;100.00
70971;BME280;58632;51.718;19.446;2023-01-28T10:44:33;100395.46;;;0.80;100.00
70971;BME280;58632;51.718;19.446;2023-01-28T10:47:01;100395.95;;;0.79;100.00
70971;BME280;58632;51.718;19.446;2023-01-28T10:49:29;100397.85;;;0.76;100.00
70971;BME280;58632;51.718;19.446;2023-01-28T10:51:55;100395.80;;;0.76;100.00
70971;BME280;58632;51.718;19.446;2023-01-28T10:54:26;100394.56;;;0.76;100.00
70971;BME280;58632;51.718;19.446;2023-01-28T10:56:53;100394.48;;;0.74;100.00
70971;BME280;58632;51.718;19.446;2023-01-28T10:59:20;100394.42;;;0.71;100.00
70971;BME280;58632;51.718;19.446;2023-01-28T11:06:57;100390.09;;;0.65;100.00
70971;BME280;58632;51.718;19.446;2023-01-28T11:09:24;100390.31;;;0.68;100.00
70971;BME280;58632;51.718;19.446;2023-01-28T11:11:50;100392.56;;;0.69;100.00
70971;BME280;58632;51.718;19.446;2023-01-28T11:14:22;100388.14;;;0.75;100.00
70971;BME280;58632;51.718;19.446;2023-01-28T11:16:49;100383.81;;;0.81;100.00
70971;BME280;58632;51.718;19.446;2023-01-28T11:19:16;100383.73;;;0.89;100.00
70971;BME280;58632;51.718;19.446;2023-01-28T11:21:47;100386.27;;;0.92;100.00
70971;BME280;58632;51.718;19.446;2023-01-28T11:24:13;100387.63;;;0.96;100.00
70971;BME280;58632;51.718;19.446;2023-01-28T11:26:44;100387.98;;;0.97;100.00
70971;BME280;58632;51.718;19.446;2023-01-28T11:29:21;100381.71;;;0.94;100.00
70971;BME280;58632;51.718;19.446;2023-01-28T11:31:48;100379.84;;;0.94;100.00
70971;BME280;58632;51.718;19.446;2023-01-28T11:34:17;100379.11;;;0.92;100.00
70971;BME280;58632;51.718;19.446;2023-01-28T11:37:16;100377.04;;;0.89;100.00
70971;BME280;58632;51.718;19.446;2023-01-28T11:39:34;100375.19;;;0.88;100.00
70971;BME280;58632;51.718;19.446;2023-01-28T11:42:10;100373.13;;;0.87;100.00
70971;BME280;58632;51.718;19.446;2023-01-28T11:44:36;100372.21;;;0.87;100.00
70971;BME280;58632;51.718;19.446;2023-01-28T11:52:16;100373.37;;;0.82;100.00
70971;BME280;58632;51.718;19.446;2023-01-28T12:05:53;100367.49;;;0.82;100.00
70971;BME280;58632;51.718;19.446;2023-01-28T12:08:11;100368.34;;;0.80;100.00
70971;BME280;58632;51.718;19.446;2023-01-28T12:10:47;100364.52;;;0.81;100.00
70971;BME280;58632;51.718;19.446;2023-01-28T12:15:48;100364.04;;;0.79;100.00
70971;BME280;58632;51.718;19.446;2023-01-28T12:26:02;100360.17;;;0.73;100.00
70971;BME280;58632;51.718;19.446;2023-01-28T12:41:34;100361.15;;;0.77;100.00
70971;BME280;58632;51.718;19.446;2023-01-28T12:44:07;100360.19;;;0.74;100.00
70971;BME280;58632;51.718;19.446;2023-01-28T12:49:21;100355.80;;;0.76;100.00
70971;BME280;58632;51.718;19.446;2023-01-28T12:54:38;100359.28;;;0.77;100.00
70971;BME280;58632;51.718;19.446;2023-01-28T12:57:08;100361.55;;;0.78;100.00
70971;BME280;58632;51.718;19.446;2023-01-28T12:59:46;100361.11;;;0.78;100.00
70971;BME280;58632;51.718;19.446;2023-01-28T13:04:46;100372.28;;;0.71;100.00
70971;BME280;58632;51.718;19.446;2023-01-28T13:07:15;100375.55;;;0.68;100.00
70971;BME280;58632;51.718;19.446;2023-01-28T13:09:47;100372.33;;;0.65;100.00
70971;BME280;58632;51.718;19.446;2023-01-28T13:12:14;100376.98;;;0.63;100.00
70971;BME280;58632;51.718;19.446;2023-01-28T13:14:40;100381.42;;;0.59;100.00
70971;BME280;58632;51.718;19.446;2023-01-28T13:17:22;100379.05;;;0.56;100.00
70971;BME280;58632;51.718;19.446;2023-01-28T13:19:48;100373.52;;;0.49;100.00
70971;BME280;58632;51.718;19.446;2023-01-28T13:24:52;100373.92;;;0.47;100.00
70971;BME280;58632;51.718;19.446;2023-01-28T13:27:24;100376.08;;;0.47;100.00
70971;BME280;58632;51.718;19.446;2023-01-28T13:29:59;100374.46;;;0.47;100.00
70971;BME280;58632;51.718;19.446;2023-01-28T13:32:29;100374.84;;;0.47;100.00
70971;BME280;58632;51.718;19.446;2023-01-28T13:34:56;100378.86;;;0.46;100.00
70971;BME280;58632;51.718;19.446;2023-01-28T13:39:48;100385.05;;;0.45;100.00
70971;BME280;58632;51.718;19.446;2023-01-28T13:44:47;100382.16;;;0.40;100.00
70971;BME280;58632;51.718;19.446;2023-01-28T13:47:14;100376.85;;;0.39;100.00
70971;BME280;58632;51.718;19.446;2023-01-28T13:49:46;100381.59;;;0.36;100.00
70971;BME280;58632;51.718;19.446;2023-01-28T13:52:17;100386.65;;;0.36;100.00
70971;BME280;58632;51.718;19.446;2023-01-28T13:54:47;100390.39;;;0.34;100.00
70971;BME280;58632;51.718;19.446;2023-01-28T14:00:05;100386.16;;;0.28;100.00
70971;BME280;58632;51.718;19.446;2023-01-28T14:02:52;100388.55;;;0.28;100.00
70971;BME280;58632;51.718;19.446;2023-01-28T14:05:37;100389.77;;;0.27;100.00
70971;BME280;58632;51.718;19.446;2023-01-28T14:15:57;100392.37;;;0.20;100.00
70971;BME280;58632;51.718;19.446;2023-01-28T14:18:34;100390.35;;;0.17;100.00
70971;BME280;58632;51.718;19.446;2023-01-28T14:21:01;100394.52;;;0.12;100.00
70971;BME280;58632;51.718;19.446;2023-01-28T14:23:27;100397.70;;;0.08;100.00
70971;BME280;58632;51.718;19.446;2023-01-28T14:26:08;100397.40;;;0.07;100.00
70971;BME280;58632;51.718;19.446;2023-01-28T14:28:45;100399.39;;;0.06;100.00
70971;BME280;58632;51.718;19.446;2023-01-28T14:33:38;100395.22;;;-0.01;100.00